Amagansett, New York
Current Conditions -  °F | °C
As of 9:35 AM on Friday 28 Nov 2014 (Local Time) from KGON Reporting Station
Broken Clouds Broken Clouds  
Wind Chill: -5°   Ceiling: 2800
Heat Index:   Visibility: 7mi
Dew Point: -4°   Wind: 17mph
Humidity: 72%   Direction: 330°NNW
Pressure: 30.08"   Gusts: 24mph
Location:  40.97°N, 72.14°W
Report Text: KGON 281435Z 33015G21KT 7SM BKN028 BKN033 01/M04 A3008 RMK AO2 T00061039 $
Loading
Personal Weather Stations






























Interactive Weather Map New forecast layout! Learn more

10-Day Weather Forecast

Advertisements
Track Severe Weather on mobile